createdAt,value
2022-08-05T00:01:56.725Z,45.29
2022-08-05T00:06:03.301Z,45.50
2022-08-05T00:08:34.879Z,45.46
2022-08-05T00:11:48.251Z,45.48
2022-08-05T00:14:51.985Z,45.65
2022-08-05T00:17:54.503Z,46.13
2022-08-05T00:20:57.299Z,45.21
2022-08-05T00:24:10.691Z,45.68
2022-08-05T00:27:16.503Z,45.86
2022-08-05T00:30:19.388Z,46.36
2022-08-05T00:34:56.203Z,46.45
2022-08-05T00:37:12.653Z,47.49
2022-08-05T00:40:27.484Z,47.43
2022-08-05T00:43:41.642Z,47.21
2022-08-05T00:46:53.958Z,47.25
2022-08-05T00:50:04.274Z,47.72
2022-08-05T00:53:09.899Z,48.38
2022-08-05T00:56:30.395Z,48.39
2022-08-05T00:59:34.580Z,48.79
2022-08-05T01:02:47.203Z,48.94
2022-08-05T01:05:54.549Z,49.32
2022-08-05T01:08:57.412Z,49.83
2022-08-05T01:12:09.463Z,50.33
2022-08-05T01:15:36.241Z,50.77
2022-08-05T01:18:48.153Z,51.07
2022-08-05T01:22:24.229Z,51.66
2022-08-05T01:25:57.238Z,51.77
2022-08-05T01:29:08.728Z,51.94
2022-08-05T01:32:18.577Z,52.57
2022-08-05T01:35:50.607Z,53.34
2022-08-05T01:38:50.877Z,53.23
2022-08-05T01:41:55.300Z,52.84
2022-08-05T01:45:03.149Z,52.18
2022-08-05T01:48:10.431Z,52.51
2022-08-05T01:51:14.827Z,52.34
2022-08-05T01:54:23.602Z,52.11
2022-08-05T01:58:29.946Z,51.51
2022-08-05T02:01:04.317Z,52.04
2022-08-05T02:04:09.025Z,52.17
2022-08-05T02:07:12.852Z,52.98
2022-08-05T02:10:28.852Z,52.88
2022-08-05T02:13:53.225Z,53.11
2022-08-05T02:17:08.271Z,53.42
2022-08-05T02:20:23.399Z,53.41
2022-08-05T02:23:33.791Z,53.68
2022-08-05T02:26:53.891Z,53.92
2022-08-05T02:30:00.983Z,54.15
2022-08-05T02:33:04.874Z,54.53
2022-08-05T02:36:13.380Z,54.79
2022-08-05T02:39:18.457Z,55.23
2022-08-05T02:42:25.830Z,55.55
2022-08-05T02:45:51.631Z,55.48
2022-08-05T02:48:53.851Z,55.63
2022-08-05T02:52:04.031Z,55.83
2022-08-05T02:55:08.680Z,56.06
2022-08-05T02:58:15.954Z,56.10
2022-08-05T03:01:23.396Z,56.33
2022-08-05T03:04:28.644Z,56.86
2022-08-05T03:08:00.175Z,56.68
2022-08-05T03:11:53.469Z,56.48
2022-08-05T03:14:16.877Z,56.46
2022-08-05T03:17:20.174Z,56.32
2022-08-05T03:20:24.807Z,56.32
2022-08-05T03:23:27.671Z,55.67
2022-08-05T03:26:32.705Z,55.47
2022-08-05T03:29:45.357Z,55.48
2022-08-05T03:32:58.634Z,55.17
2022-08-05T03:36:01.511Z,55.33
2022-08-05T03:39:19.909Z,55.00
2022-08-05T03:42:32.138Z,55.19
2022-08-05T03:45:58.137Z,55.30
2022-08-05T03:48:58.526Z,55.29
2022-08-05T03:52:36.872Z,55.10
2022-08-05T03:56:10.874Z,55.82
2022-08-05T03:59:02.758Z,55.95
2022-08-05T04:02:06.430Z,55.90
2022-08-05T04:05:10.502Z,55.93
2022-08-05T04:08:29.674Z,55.92
2022-08-05T04:11:47.547Z,56.00
2022-08-05T04:14:54.362Z,56.08
2022-08-05T04:18:09.376Z,56.16
2022-08-05T04:21:12.736Z,56.27
2022-08-05T04:24:35.144Z,56.01
2022-08-05T04:27:43.467Z,55.94
2022-08-05T04:30:48.102Z,55.59
2022-08-05T04:34:18.609Z,54.84
2022-08-05T04:37:12.879Z,52.02
2022-08-05T04:40:15.050Z,46.15
2022-08-05T04:43:22.247Z,40.08
2022-08-05T04:46:28.226Z,35.76
2022-08-05T04:49:39.196Z,32.77
2022-08-05T04:52:53.228Z,30.61
2022-08-05T04:56:15.367Z,28.33
2022-08-05T04:59:24.131Z,27.33
2022-08-05T05:02:41.734Z,25.62
2022-08-05T05:06:39.233Z,24.33
2022-08-05T05:09:07.894Z,23.28
2022-08-05T05:12:10.221Z,21.81
2022-08-05T05:15:17.471Z,21.07
2022-08-05T05:18:36.588Z,20.43
2022-08-05T05:21:39.030Z,19.87
2022-08-05T05:24:58.937Z,19.21
2022-08-05T05:28:02.544Z,19.38
2022-08-05T05:31:05.789Z,18.78
2022-08-05T05:34:11.378Z,18.38
2022-08-05T05:37:15.070Z,17.42
2022-08-05T05:40:20.159Z,17.02
2022-08-05T05:43:54.613Z,16.81
2022-08-05T05:46:45.478Z,16.63
2022-08-05T05:49:56.956Z,16.11
2022-08-05T05:53:20.775Z,16.08
2022-08-05T05:56:25.936Z,16.41
2022-08-05T05:59:40.346Z,15.56
2022-08-05T06:02:43.809Z,15.27
2022-08-05T06:05:54.004Z,14.87
2022-08-05T06:08:56.250Z,14.53
2022-08-05T06:12:01.675Z,13.97
2022-08-05T06:15:08.043Z,13.80
2022-08-05T06:18:10.647Z,13.86
2022-08-05T06:21:18.640Z,13.61
2022-08-05T06:24:27.193Z,12.61
2022-08-05T06:28:11.890Z,12.55
2022-08-05T06:30:52.151Z,11.61
2022-08-05T06:34:07.530Z,12.52
2022-08-05T06:37:11.634Z,12.03
2022-08-05T06:40:18.427Z,12.27
2022-08-05T06:43:58.328Z,12.14
2022-08-05T06:46:46.105Z,11.43
2022-08-05T06:50:01.744Z,11.70
2022-08-05T06:53:11.509Z,10.94
2022-08-05T06:56:26.551Z,10.93
2022-08-05T06:59:29.153Z,11.02
2022-08-05T07:02:45.124Z,11.00
2022-08-05T07:05:47.319Z,10.53
2022-08-05T07:08:54.970Z,10.20
2022-08-05T07:12:00.471Z,10.29
2022-08-05T07:15:34.784Z,10.05
2022-08-05T07:18:47.842Z,10.70
2022-08-05T07:22:00.323Z,10.71
2022-08-05T07:25:22.695Z,10.64
2022-08-05T07:28:27.121Z,10.96
2022-08-05T07:31:53.943Z,10.43
2022-08-05T07:34:57.721Z,10.45
2022-08-05T07:38:00.203Z,10.20
2022-08-05T07:42:08.968Z,10.00
2022-08-05T07:44:27.258Z,10.95
2022-08-05T07:47:39.634Z,11.32
2022-08-05T07:50:44.808Z,11.41
2022-08-05T07:53:50.586Z,11.52
2022-08-05T07:57:01.732Z,12.42
2022-08-05T08:00:17.385Z,13.69
2022-08-05T08:03:21.623Z,14.15
2022-08-05T08:06:23.812Z,15.54
2022-08-05T08:09:30.843Z,16.74
2022-08-05T08:12:48.926Z,17.25
2022-08-05T08:16:35.143Z,17.82
2022-08-05T08:20:20.925Z,18.91
2022-08-05T08:22:36.947Z,19.41
2022-08-05T08:26:00.611Z,20.22
2022-08-05T08:29:21.870Z,20.54
2022-08-05T08:32:27.935Z,21.54
2022-08-05T08:35:34.717Z,22.76
2022-08-05T08:38:42.853Z,22.35
2022-08-05T08:41:59.425Z,22.00
2022-08-05T08:45:20.552Z,22.52
2022-08-05T08:49:02.455Z,22.10
2022-08-05T08:52:03.596Z,22.46
2022-08-05T08:55:13.206Z,22.24
2022-08-05T08:58:17.106Z,22.69
2022-08-05T09:01:20.328Z,22.12
2022-08-05T09:04:22.826Z,22.54
2022-08-05T09:07:39.359Z,22.04
2022-08-05T09:10:46.922Z,22.16
2022-08-05T09:14:09.460Z,22.63
2022-08-05T09:17:40.776Z,22.86
2022-08-05T09:20:37.520Z,22.79
2022-08-05T09:23:43.647Z,23.18
2022-08-05T09:26:48.601Z,23.20
2022-08-05T09:29:54.620Z,23.33
2022-08-05T09:33:02.315Z,22.85
2022-08-05T09:36:11.723Z,22.91
2022-08-05T09:39:22.359Z,22.75
2022-08-05T09:42:28.144Z,22.05
2022-08-05T09:46:06.756Z,22.44
2022-08-05T09:49:19.032Z,22.91
2022-08-05T09:52:34.280Z,22.35
2022-08-05T09:55:57.261Z,22.19
2022-08-05T09:59:04.358Z,22.11
2022-08-05T10:02:06.669Z,21.75
2022-08-05T10:05:14.921Z,22.73
2022-08-05T10:08:36.199Z,22.02
2022-08-05T10:11:41.542Z,22.12
2022-08-05T10:14:44.013Z,22.24
2022-08-05T10:18:10.337Z,21.86
2022-08-05T10:21:16.297Z,21.66
2022-08-05T10:24:20.896Z,22.08
2022-08-05T10:28:09.239Z,22.21
2022-08-05T10:32:49.686Z,21.77
2022-08-05T10:34:16.923Z,22.19
2022-08-05T10:37:21.049Z,20.93
2022-08-05T10:40:43.502Z,21.38
2022-08-05T10:43:59.571Z,21.33
2022-08-05T10:47:26.844Z,21.83
2022-08-05T10:50:45.449Z,21.79
2022-08-05T10:53:51.681Z,20.92
2022-08-05T10:56:57.218Z,21.33
2022-08-05T11:00:19.260Z,21.12
2022-08-05T11:03:26.640Z,21.10
2022-08-05T11:06:30.732Z,20.96
2022-08-05T11:09:46.534Z,20.43
2022-08-05T11:12:54.279Z,20.67
2022-08-05T11:16:33.700Z,20.45
2022-08-05T11:20:10.721Z,20.53
2022-08-05T11:24:05.092Z,20.31
2022-08-05T11:27:37.021Z,19.34
2022-08-05T11:30:58.493Z,19.95
2022-08-05T11:34:05.806Z,19.54
2022-08-05T11:38:28.579Z,20.41
2022-08-05T11:41:13.986Z,20.83
2022-08-05T11:44:53.114Z,20.49
2022-08-05T11:47:54.784Z,20.23
2022-08-05T11:50:58.108Z,20.67
2022-08-05T11:54:01.813Z,20.57
2022-08-05T11:57:08.723Z,20.81
2022-08-05T12:00:31.140Z,21.02
2022-08-05T12:03:55.608Z,20.88
2022-08-05T12:07:00.578Z,20.67
2022-08-05T12:10:09.657Z,20.87
2022-08-05T12:13:18.891Z,21.39
2022-08-05T12:16:39.159Z,20.80
2022-08-05T12:20:25.960Z,20.01
2022-08-05T12:23:22.138Z,20.35
2022-08-05T12:26:24.485Z,21.02
2022-08-05T12:29:29.174Z,20.15
2022-08-05T12:32:50.364Z,20.51
2022-08-05T12:35:53.850Z,20.21
2022-08-05T12:38:58.955Z,20.61
2022-08-05T12:42:02.467Z,20.26
2022-08-05T12:45:10.131Z,20.08
2022-08-05T12:48:26.777Z,20.35
2022-08-05T12:52:12.832Z,19.98
2022-08-05T12:55:26.134Z,20.16
2022-08-05T12:58:48.828Z,20.28
2022-08-05T13:02:04.443Z,20.45
2022-08-05T13:05:08.422Z,20.66
2022-08-05T13:08:18.650Z,20.18
2022-08-05T13:11:25.352Z,20.17
2022-08-05T13:15:05.674Z,20.57
2022-08-05T13:18:09.183Z,20.46
2022-08-05T13:21:12.625Z,20.30
2022-08-05T13:24:27.645Z,20.54
2022-08-05T13:27:42.035Z,20.45
2022-08-05T13:30:44.531Z,20.95
2022-08-05T13:34:25.161Z,20.08
2022-08-05T13:37:13.415Z,20.18
2022-08-05T13:40:36.693Z,20.43
2022-08-05T13:43:45.550Z,20.95
2022-08-05T13:47:02.049Z,20.69
2022-08-05T13:50:10.349Z,20.02
2022-08-05T13:53:15.971Z,20.03
2022-08-05T13:56:19.355Z,20.58
2022-08-05T13:59:24.217Z,20.41
2022-08-05T14:02:29.773Z,20.36
2022-08-05T14:06:04.736Z,20.71
2022-08-05T14:08:56.043Z,20.44
2022-08-05T14:12:17.271Z,20.86
2022-08-05T14:16:04.342Z,20.70
2022-08-05T14:18:43.342Z,20.23
2022-08-05T14:22:09.531Z,20.29
2022-08-05T14:25:21.531Z,20.26
2022-08-05T14:28:27.547Z,20.36
2022-08-05T14:32:03.520Z,20.59
2022-08-05T14:34:54.129Z,21.07
2022-08-05T14:37:59.348Z,21.01
2022-08-05T14:41:06.693Z,21.43
2022-08-05T14:44:20.489Z,20.84
2022-08-05T14:48:04.205Z,21.13
2022-08-05T14:50:46.131Z,21.18
2022-08-05T14:54:26.045Z,21.66
2022-08-05T14:57:13.543Z,21.24
2022-08-05T15:00:16.095Z,21.31
2022-08-05T15:03:22.901Z,21.51
2022-08-05T15:06:28.071Z,21.07
2022-08-05T15:09:54.088Z,21.11
2022-08-05T15:13:01.183Z,21.53
2022-08-05T15:16:07.227Z,21.07
2022-08-05T15:19:14.411Z,21.63
2022-08-05T15:22:26.942Z,21.87
2022-08-05T15:25:50.955Z,21.44
2022-08-05T15:28:52.567Z,21.49
2022-08-05T15:31:54.734Z,21.70
2022-08-05T15:34:58.298Z,21.86
2022-08-05T15:38:09.276Z,21.41
2022-08-05T15:41:24.730Z,21.84
2022-08-05T15:44:46.497Z,21.94
2022-08-05T15:47:49.490Z,21.55
2022-08-05T15:50:57.478Z,21.25
2022-08-05T15:54:00.053Z,21.36
2022-08-05T15:57:03.275Z,21.64
2022-08-05T16:00:11.404Z,21.73
2022-08-05T16:03:14.331Z,21.94
2022-08-05T16:06:20.291Z,22.16
2022-08-05T16:09:24.898Z,21.90
2022-08-05T16:12:27.252Z,21.67
2022-08-05T16:15:32.433Z,21.31
2022-08-05T16:18:51.821Z,22.14
2022-08-05T16:22:00.241Z,22.33
2022-08-05T16:25:09.559Z,22.04
2022-08-05T16:28:13.600Z,21.93
2022-08-05T16:31:17.935Z,23.19
2022-08-05T16:34:22.610Z,24.20
2022-08-05T16:38:03.707Z,22.43
2022-08-05T16:40:55.198Z,23.31
2022-08-05T16:43:58.255Z,23.00
2022-08-05T16:47:00.940Z,23.20
2022-08-05T16:50:04.957Z,25.51
2022-08-05T16:53:12.241Z,25.73
2022-08-05T16:56:25.727Z,24.71
2022-08-05T16:59:30.764Z,26.36
2022-08-05T17:02:33.384Z,26.58
2022-08-05T17:05:37.022Z,26.78
2022-08-05T17:08:53.304Z,27.68
2022-08-05T17:12:00.052Z,27.76
2022-08-05T17:15:02.775Z,27.96
2022-08-05T17:18:05.559Z,28.54
2022-08-05T17:21:16.462Z,28.37
2022-08-05T17:24:35.172Z,28.95
2022-08-05T17:27:41.437Z,29.25
2022-08-05T17:30:51.965Z,29.38
2022-08-05T17:33:55.943Z,29.39
2022-08-05T17:37:00.432Z,29.42
2022-08-05T17:40:04.748Z,29.70
2022-08-05T17:43:13.102Z,29.93
2022-08-05T17:46:18.391Z,30.36
2022-08-05T17:49:21.131Z,30.71
2022-08-05T17:52:26.356Z,31.09
2022-08-05T17:55:38.468Z,31.39
2022-08-05T17:58:42.227Z,31.62
2022-08-05T18:01:49.627Z,31.79
2022-08-05T18:04:53.603Z,31.99
2022-08-05T18:07:57.394Z,32.18
2022-08-05T18:11:00.154Z,31.96
2022-08-05T18:14:06.663Z,32.04
2022-08-05T18:18:00.353Z,32.33
2022-08-05T18:20:32.551Z,32.67
2022-08-05T18:23:45.805Z,32.92
2022-08-05T18:26:49.475Z,33.18
2022-08-05T18:29:54.564Z,33.47
2022-08-05T18:33:00.285Z,33.80
2022-08-05T18:36:11.938Z,34.43
2022-08-05T18:39:42.517Z,34.44
2022-08-05T18:42:40.807Z,34.93
2022-08-05T18:45:43.932Z,35.72
2022-08-05T18:48:52.125Z,35.65
2022-08-05T18:52:13.474Z,35.71
2022-08-05T18:55:17.279Z,36.13
2022-08-05T18:58:19.456Z,36.48
2022-08-05T19:01:33.239Z,36.87
2022-08-05T19:05:02.656Z,37.03
2022-08-05T19:08:13.733Z,37.49
2022-08-05T19:11:27.858Z,38.59
2022-08-05T19:14:52.292Z,39.02
2022-08-05T19:18:08.067Z,39.02
2022-08-05T19:21:12.394Z,39.37
2022-08-05T19:24:14.571Z,39.87
2022-08-05T19:27:17.045Z,40.33
2022-08-05T19:30:21.851Z,40.60
2022-08-05T19:33:35.375Z,40.55
2022-08-05T19:36:38.736Z,41.25
2022-08-05T19:39:50.967Z,41.70
2022-08-05T19:43:04.553Z,41.00
2022-08-05T19:46:16.959Z,39.97
2022-08-05T19:49:30.843Z,39.66
2022-08-05T19:52:33.432Z,39.88
2022-08-05T19:56:14.416Z,40.14
2022-08-05T19:58:58.011Z,40.62
2022-08-05T20:02:20.121Z,41.12
2022-08-05T20:05:24.614Z,41.40
2022-08-05T20:08:27.056Z,41.41
2022-08-05T20:11:30.702Z,41.03
2022-08-05T20:14:39.930Z,40.78
2022-08-05T20:17:42.399Z,41.03
2022-08-05T20:20:46.081Z,41.08
2022-08-05T20:23:51.560Z,40.79
2022-08-05T20:26:55.490Z,41.11
2022-08-05T20:29:59.608Z,41.24
2022-08-05T20:33:02.304Z,41.36
2022-08-05T20:36:04.859Z,41.64
2022-08-05T20:39:07.116Z,42.08
2022-08-05T20:42:15.418Z,41.84
2022-08-05T20:45:23.951Z,42.10
2022-08-05T20:48:50.993Z,42.51
2022-08-05T20:51:54.978Z,42.62
2022-08-05T20:55:15.966Z,42.82
2022-08-05T20:58:19.801Z,43.17
2022-08-05T21:01:26.146Z,43.24
2022-08-05T21:04:40.695Z,43.78
2022-08-05T21:07:50.470Z,43.98
2022-08-05T21:10:53.931Z,44.16
2022-08-05T21:13:56.987Z,45.08
2022-08-05T21:16:59.265Z,44.57
2022-08-05T21:20:09.792Z,44.41
2022-08-05T21:23:12.892Z,44.58
2022-08-05T21:26:16.665Z,45.03
2022-08-05T21:29:19.899Z,45.36
2022-08-05T21:32:27.712Z,45.28
2022-08-05T21:35:55.771Z,45.24
2022-08-05T21:38:52.649Z,45.47
2022-08-05T21:42:01.476Z,45.30
2022-08-05T21:45:05.235Z,45.30
2022-08-05T21:48:13.528Z,45.94
2022-08-05T21:51:25.309Z,46.49
2022-08-05T21:54:40.294Z,46.44
2022-08-05T21:57:44.145Z,46.48
2022-08-05T22:00:51.436Z,46.59
2022-08-05T22:03:54.467Z,47.15
2022-08-05T22:06:57.097Z,47.10
2022-08-05T22:09:59.820Z,47.06
2022-08-05T22:14:05.078Z,47.13
2022-08-05T22:16:41.290Z,47.17
2022-08-05T22:20:00.332Z,47.36
2022-08-05T22:23:25.385Z,47.64
2022-08-05T22:27:06.926Z,47.83
2022-08-05T22:30:15.200Z,48.12
2022-08-05T22:33:19.445Z,48.36
2022-08-05T22:36:41.910Z,48.69
2022-08-05T22:39:45.254Z,48.61
2022-08-05T22:42:58.168Z,48.63
2022-08-05T22:46:02.514Z,48.28
2022-08-05T22:49:23.294Z,48.54
2022-08-05T22:52:34.551Z,48.33
2022-08-05T22:55:57.280Z,48.81
2022-08-05T22:59:02.778Z,49.18
2022-08-05T23:02:07.715Z,49.42
2022-08-05T23:05:10.181Z,49.41
2022-08-05T23:08:12.722Z,49.47
2022-08-05T23:11:16.422Z,49.06
2022-08-05T23:14:22.668Z,49.23
2022-08-05T23:17:37.926Z,49.20
2022-08-05T23:20:56.588Z,49.47
2022-08-05T23:24:00.559Z,49.67
2022-08-05T23:27:06.288Z,49.87
2022-08-05T23:30:10.769Z,50.07
2022-08-05T23:33:22.292Z,50.39
2022-08-05T23:36:38.663Z,50.60
2022-08-05T23:39:53.286Z,50.53
2022-08-05T23:42:56.700Z,50.80
2022-08-05T23:45:59.299Z,50.83
2022-08-05T23:49:15.653Z,50.81
2022-08-05T23:52:35.734Z,51.02
2022-08-05T23:55:38.533Z,51.04
2022-08-05T23:58:44.144Z,51.72
